sensor_id;sensor_type;location;lat;lon;timestamp;P1;durP1;ratioP1;P2;durP2;ratioP2
17866;SDS011;9059;49.934;8.650;2023-08-17T00:05:25;3.58;;;0.95;;
17866;SDS011;9059;49.934;8.650;2023-08-17T00:15:28;4.80;;;1.05;;
17866;SDS011;9059;49.934;8.650;2023-08-17T00:25:32;1.58;;;0.88;;
17866;SDS011;9059;49.934;8.650;2023-08-17T00:35:35;4.30;;;1.13;;
17866;SDS011;9059;49.934;8.650;2023-08-17T00:45:39;1.10;;;0.70;;
17866;SDS011;9059;49.934;8.650;2023-08-17T00:55:43;1.13;;;0.60;;
17866;SDS011;9059;49.934;8.650;2023-08-17T01:05:47;4.20;;;0.90;;
17866;SDS011;9059;49.934;8.650;2023-08-17T01:15:50;3.13;;;0.93;;
17866;SDS011;9059;49.934;8.650;2023-08-17T01:25:57;2.80;;;0.90;;
17866;SDS011;9059;49.934;8.650;2023-08-17T01:36:01;1.77;;;1.00;;
17866;SDS011;9059;49.934;8.650;2023-08-17T01:46:09;2.45;;;1.23;;
17866;SDS011;9059;49.934;8.650;2023-08-17T01:56:12;3.67;;;1.90;;
17866;SDS011;9059;49.934;8.650;2023-08-17T02:06:17;4.13;;;2.08;;
17866;SDS011;9059;49.934;8.650;2023-08-17T02:16:19;5.32;;;2.00;;
17866;SDS011;9059;49.934;8.650;2023-08-17T02:26:24;4.15;;;1.90;;
17866;SDS011;9059;49.934;8.650;2023-08-17T02:36:27;4.47;;;2.42;;
17866;SDS011;9059;49.934;8.650;2023-08-17T02:46:32;19.65;;;3.35;;
17866;SDS011;9059;49.934;8.650;2023-08-17T02:56:35;18.85;;;3.70;;
17866;SDS011;9059;49.934;8.650;2023-08-17T03:06:40;8.20;;;3.00;;
17866;SDS011;9059;49.934;8.650;2023-08-17T03:16:43;12.85;;;3.53;;
17866;SDS011;9059;49.934;8.650;2023-08-17T03:26:47;7.80;;;3.70;;
17866;SDS011;9059;49.934;8.650;2023-08-17T03:36:50;13.98;;;3.90;;
17866;SDS011;9059;49.934;8.650;2023-08-17T03:46:55;14.38;;;4.10;;
17866;SDS011;9059;49.934;8.650;2023-08-17T03:57:02;11.50;;;4.15;;
17866;SDS011;9059;49.934;8.650;2023-08-17T04:07:06;9.18;;;4.45;;
17866;SDS011;9059;49.934;8.650;2023-08-17T04:17:09;15.13;;;4.32;;
17866;SDS011;9059;49.934;8.650;2023-08-17T04:27:17;9.07;;;5.00;;
17866;SDS011;9059;49.934;8.650;2023-08-17T04:37:25;7.40;;;3.55;;
17866;SDS011;9059;49.934;8.650;2023-08-17T04:47:30;10.10;;;2.92;;
17866;SDS011;9059;49.934;8.650;2023-08-17T04:57:33;5.32;;;3.03;;
17866;SDS011;9059;49.934;8.650;2023-08-17T05:07:38;5.43;;;2.88;;
17866;SDS011;9059;49.934;8.650;2023-08-17T05:17:41;6.38;;;2.70;;
17866;SDS011;9059;49.934;8.650;2023-08-17T05:27:46;6.65;;;3.20;;
17866;SDS011;9059;49.934;8.650;2023-08-17T05:37:52;5.25;;;2.40;;
17866;SDS011;9059;49.934;8.650;2023-08-17T05:47:57;5.57;;;2.22;;
17866;SDS011;9059;49.934;8.650;2023-08-17T05:58:00;4.55;;;2.50;;
17866;SDS011;9059;49.934;8.650;2023-08-17T06:08:04;6.45;;;2.25;;
17866;SDS011;9059;49.934;8.650;2023-08-17T06:18:07;6.38;;;2.13;;
17866;SDS011;9059;49.934;8.650;2023-08-17T06:28:12;4.30;;;2.60;;
17866;SDS011;9059;49.934;8.650;2023-08-17T06:38:15;8.30;;;2.45;;
17866;SDS011;9059;49.934;8.650;2023-08-17T06:48:19;3.45;;;2.25;;
17866;SDS011;9059;49.934;8.650;2023-08-17T06:58:22;7.43;;;2.40;;
17866;SDS011;9059;49.934;8.650;2023-08-17T07:08:26;5.80;;;2.20;;
17866;SDS011;9059;49.934;8.650;2023-08-17T07:18:29;4.32;;;2.20;;
17866;SDS011;9059;49.934;8.650;2023-08-17T07:28:33;3.15;;;2.00;;
17866;SDS011;9059;49.934;8.650;2023-08-17T07:38:36;3.78;;;2.13;;
17866;SDS011;9059;49.934;8.650;2023-08-17T07:48:40;3.88;;;2.03;;
17866;SDS011;9059;49.934;8.650;2023-08-17T07:58:43;3.10;;;1.88;;
17866;SDS011;9059;49.934;8.650;2023-08-17T08:08:47;4.22;;;2.03;;
17866;SDS011;9059;49.934;8.650;2023-08-17T08:18:50;2.90;;;2.03;;
17866;SDS011;9059;49.934;8.650;2023-08-17T08:28:55;12.45;;;3.00;;
17866;SDS011;9059;49.934;8.650;2023-08-17T08:38:58;4.60;;;2.70;;
17866;SDS011;9059;49.934;8.650;2023-08-17T08:49:04;4.20;;;3.00;;
17866;SDS011;9059;49.934;8.650;2023-08-17T08:59:09;6.13;;;2.40;;
17866;SDS011;9059;49.934;8.650;2023-08-17T09:09:15;4.03;;;2.67;;
17866;SDS011;9059;49.934;8.650;2023-08-17T09:19:18;5.97;;;2.65;;
17866;SDS011;9059;49.934;8.650;2023-08-17T09:29:24;5.82;;;3.28;;
17866;SDS011;9059;49.934;8.650;2023-08-17T09:39:28;6.03;;;3.70;;
17866;SDS011;9059;49.934;8.650;2023-08-17T09:49:33;5.20;;;3.28;;
17866;SDS011;9059;49.934;8.650;2023-08-17T09:59:36;4.97;;;3.55;;
17866;SDS011;9059;49.934;8.650;2023-08-17T10:09:42;6.10;;;3.00;;
17866;SDS011;9059;49.934;8.650;2023-08-17T10:19:51;9.18;;;3.15;;
17866;SDS011;9059;49.934;8.650;2023-08-17T10:29:57;6.20;;;3.22;;
17866;SDS011;9059;49.934;8.650;2023-08-17T10:40:00;4.88;;;2.90;;
17866;SDS011;9059;49.934;8.650;2023-08-17T10:50:10;3.33;;;2.65;;
17866;SDS011;9059;49.934;8.650;2023-08-17T11:00:23;4.50;;;2.28;;
17866;SDS011;9059;49.934;8.650;2023-08-17T11:10:30;6.55;;;2.20;;
17866;SDS011;9059;49.934;8.650;2023-08-17T11:20:33;2.80;;;2.40;;
17866;SDS011;9059;49.934;8.650;2023-08-17T11:30:37;4.43;;;2.10;;
17866;SDS011;9059;49.934;8.650;2023-08-17T11:40:41;2.63;;;1.95;;
17866;SDS011;9059;49.934;8.650;2023-08-17T11:50:45;4.78;;;2.30;;
17866;SDS011;9059;49.934;8.650;2023-08-17T12:00:48;4.03;;;2.15;;
17866;SDS011;9059;49.934;8.650;2023-08-17T12:10:53;4.60;;;2.13;;
17866;SDS011;9059;49.934;8.650;2023-08-17T12:20:56;4.43;;;1.80;;
17866;SDS011;9059;49.934;8.650;2023-08-17T12:31:01;3.40;;;2.10;;
17866;SDS011;9059;49.934;8.650;2023-08-17T12:41:05;3.33;;;2.13;;
17866;SDS011;9059;49.934;8.650;2023-08-17T12:51:09;4.35;;;2.10;;
17866;SDS011;9059;49.934;8.650;2023-08-17T13:01:12;4.32;;;1.85;;
17866;SDS011;9059;49.934;8.650;2023-08-17T13:11:17;2.75;;;1.85;;
17866;SDS011;9059;49.934;8.650;2023-08-17T13:21:20;3.88;;;1.67;;
17866;SDS011;9059;49.934;8.650;2023-08-17T13:31:24;2.40;;;1.63;;
17866;SDS011;9059;49.934;8.650;2023-08-17T13:41:27;2.33;;;1.80;;
17866;SDS011;9059;49.934;8.650;2023-08-17T13:51:32;1.75;;;1.35;;
17866;SDS011;9059;49.934;8.650;2023-08-17T14:01:34;1.85;;;1.55;;
17866;SDS011;9059;49.934;8.650;2023-08-17T14:11:39;1.85;;;1.60;;
17866;SDS011;9059;49.934;8.650;2023-08-17T14:21:42;3.78;;;1.50;;
17866;SDS011;9059;49.934;8.650;2023-08-17T14:31:46;2.63;;;1.40;;
17866;SDS011;9059;49.934;8.650;2023-08-17T14:41:49;2.45;;;1.60;;
17866;SDS011;9059;49.934;8.650;2023-08-17T14:51:55;6.05;;;1.50;;
17866;SDS011;9059;49.934;8.650;2023-08-17T15:01:58;2.75;;;1.50;;
17866;SDS011;9059;49.934;8.650;2023-08-17T15:12:05;3.25;;;1.35;;
17866;SDS011;9059;49.934;8.650;2023-08-17T15:22:08;2.72;;;1.63;;
17866;SDS011;9059;49.934;8.650;2023-08-17T15:32:17;2.78;;;1.27;;
17866;SDS011;9059;49.934;8.650;2023-08-17T15:42:20;3.22;;;1.55;;
17866;SDS011;9059;49.934;8.650;2023-08-17T15:52:24;3.67;;;1.52;;
17866;SDS011;9059;49.934;8.650;2023-08-17T16:02:27;4.60;;;1.60;;
17866;SDS011;9059;49.934;8.650;2023-08-17T16:12:32;2.00;;;1.60;;
17866;SDS011;9059;49.934;8.650;2023-08-17T16:22:35;2.20;;;1.63;;
17866;SDS011;9059;49.934;8.650;2023-08-17T16:32:39;1.92;;;1.40;;
17866;SDS011;9059;49.934;8.650;2023-08-17T16:42:42;2.95;;;1.40;;
17866;SDS011;9059;49.934;8.650;2023-08-17T16:52:48;2.10;;;1.40;;
17866;SDS011;9059;49.934;8.650;2023-08-17T17:02:52;3.42;;;1.23;;
17866;SDS011;9059;49.934;8.650;2023-08-17T17:12:56;2.95;;;1.20;;
17866;SDS011;9059;49.934;8.650;2023-08-17T17:22:59;3.88;;;1.10;;
17866;SDS011;9059;49.934;8.650;2023-08-17T17:33:04;2.15;;;1.13;;
17866;SDS011;9059;49.934;8.650;2023-08-17T17:43:09;2.17;;;1.10;;
17866;SDS011;9059;49.934;8.650;2023-08-17T17:53:15;1.58;;;1.15;;
17866;SDS011;9059;49.934;8.650;2023-08-17T18:03:17;6.60;;;1.20;;
17866;SDS011;9059;49.934;8.650;2023-08-17T18:13:22;1.58;;;1.10;;
17866;SDS011;9059;49.934;8.650;2023-08-17T18:23:25;7.30;;;1.35;;
17866;SDS011;9059;49.934;8.650;2023-08-17T18:33:29;4.95;;;1.20;;
17866;SDS011;9059;49.934;8.650;2023-08-17T18:43:34;5.75;;;1.20;;
17866;SDS011;9059;49.934;8.650;2023-08-17T18:53:38;6.85;;;1.20;;
17866;SDS011;9059;49.934;8.650;2023-08-17T19:03:41;2.95;;;1.30;;
17866;SDS011;9059;49.934;8.650;2023-08-17T19:13:46;2.83;;;1.30;;
17866;SDS011;9059;49.934;8.650;2023-08-17T19:23:49;3.47;;;1.20;;
17866;SDS011;9059;49.934;8.650;2023-08-17T19:33:53;4.53;;;1.43;;
17866;SDS011;9059;49.934;8.650;2023-08-17T19:43:56;3.42;;;1.50;;
17866;SDS011;9059;49.934;8.650;2023-08-17T19:54:01;2.42;;;1.33;;
17866;SDS011;9059;49.934;8.650;2023-08-17T20:04:08;6.10;;;1.75;;
17866;SDS011;9059;49.934;8.650;2023-08-17T20:14:16;4.78;;;1.48;;
17866;SDS011;9059;49.934;8.650;2023-08-17T20:24:23;2.67;;;1.55;;
17866;SDS011;9059;49.934;8.650;2023-08-17T20:34:27;1.20;;;1.10;;
17866;SDS011;9059;49.934;8.650;2023-08-17T20:44:30;7.47;;;1.67;;
17866;SDS011;9059;49.934;8.650;2023-08-17T20:54:35;8.27;;;2.20;;
17866;SDS011;9059;49.934;8.650;2023-08-17T21:04:38;7.22;;;1.92;;
17866;SDS011;9059;49.934;8.650;2023-08-17T21:14:42;3.95;;;1.58;;
17866;SDS011;9059;49.934;8.650;2023-08-17T21:24:48;2.38;;;1.90;;
17866;SDS011;9059;49.934;8.650;2023-08-17T21:34:52;6.00;;;1.58;;
17866;SDS011;9059;49.934;8.650;2023-08-17T21:44:55;3.83;;;1.67;;
17866;SDS011;9059;49.934;8.650;2023-08-17T21:55:00;3.40;;;1.08;;
17866;SDS011;9059;49.934;8.650;2023-08-17T22:05:03;5.63;;;1.65;;
17866;SDS011;9059;49.934;8.650;2023-08-17T22:15:08;2.63;;;1.67;;
17866;SDS011;9059;49.934;8.650;2023-08-17T22:25:11;4.80;;;1.63;;
17866;SDS011;9059;49.934;8.650;2023-08-17T22:35:18;4.18;;;1.63;;
17866;SDS011;9059;49.934;8.650;2023-08-17T22:45:22;7.43;;;1.90;;
17866;SDS011;9059;49.934;8.650;2023-08-17T22:55:29;5.40;;;2.28;;
17866;SDS011;9059;49.934;8.650;2023-08-17T23:05:33;3.72;;;1.88;;
17866;SDS011;9059;49.934;8.650;2023-08-17T23:15:45;5.63;;;2.00;;
17866;SDS011;9059;49.934;8.650;2023-08-17T23:25:49;3.40;;;1.85;;
17866;SDS011;9059;49.934;8.650;2023-08-17T23:35:54;5.40;;;1.92;;
17866;SDS011;9059;49.934;8.650;2023-08-17T23:45:57;4.05;;;2.00;;
17866;SDS011;9059;49.934;8.650;2023-08-17T23:56:02;8.77;;;2.60;;
